KOLE

Cattaraugus County-Olean Airport

Olean, New York, USA
METAR KOLE 150055Z AUTO 26003KT 10SM CLR 18/16 A2997 RMK AO2
Observed Flight Rules
Aug-15 @ 00:55 UTC (12 minutes ago) Visual Flight Rules
Wind Visibility Clouds
260° at 3 knots 10 miles
  • Clear skies
Temperatures Readings
Current 18°C / 64°F
Dewpoint 16°C / 61°F
Humidity 88%
Altimeter 29.97" Hg
Pressure 1015 hPa
Elevation 651
METAR KOLE 150055Z AUTO 26003KT 10SM CLR 18/16 A2997 RMK AO2
Observed Flight Rules
Aug-15 @ 00:55 UTC
(12 minutes ago)
VFR
Wind Visibility
260° at 3 knots 10 miles
Clouds
  • Clear skies
Temperature Dewpoint
18°C / 64°F 16°C / 61°F
Humidity Altimeter Pressure
88% 29.97" Hg 1015 hPa